Latest METARs, TAFs and NOTAMs for MYNN


---------------------------------------------------------------------------
	(OBSERVATIONS)
MYNN 050000Z 11009KT 9999 SCT016 25/22 A3013= NNNN
MYNN 042300Z 11008KT 9999 FEW012 SCT018 25/21 A3012= NNNN
MYNN 042200Z 11010KT 9999 FEW012 SCT016 26/20 A3011= NNNN
---------------------------------------------------------------------------
	(TERMINAL AREA FORECAST)
MYNN 042200Z 0500/0524 13012KT 9999 SCT020=
---------------------------------------------------------------------------
	(NOTAMS)


MYNN A0022/15 WITH THE EXCEPTION OF MYNN AND MYGF RNAV APCH PROC
    IN THE BAHAMAS ARE NOT AUTH DUE TO AIRSPACE CLASSIFICATION
    RESTRICTIONS. 26 FEB 15:00 2015 UNTIL 29 MAY 21:00 2015.
    CREATED: 26 FEB 14:35 2015

MYNN A0024/15 CHECKLIST (A) SERIES YEAR=2010 0277 YEAR=2013 0068
    0069 0070 YEAR=2014 0200 0201 0202 0203 0204 0205 0206 0207
    0208 0209 0210 0211 0212 YEAR=2015 0021 0022 0023 LATEST
    PUBLICATIONS AIP AMDT 02/14 EFFECTIVE AUGUST 21, 2014 AIC
    04/14. 02 MAR 16:30 2015 UNTIL 31 MAR 23:59 2015. CREATED:
    02 MAR 14:53 2015

MYNN A0025/15 REF THE BAHAMAS AIP PAGE AD 2-46-1 SECTION MYGF
    AD 2.10.2.3 #6 MET BRIEFING OFFICE THE OPERATIONAL HOURS
    ARE MONDAY TO SUNDAY (7 DAYS PER WEEK) 0700LOCAL/1200UTC
    UNTIL 2000LOCAL/0100UTC INFORMATION WILL BE INCORPORATED
    IN THE AIP. 03 MAR 18:00 2015 UNTIL 30 JUN 23:59 2015. CREATED:
    03 MAR 17:20 2015

MYNN A0068/13 VOR Y RWY 14 FEEDER RTE FM MAJUR TO MUNIE NOT AVBL
    VOR Y RWY 14 FEEDER RTE FM MELON TO MUNIE NOT AVBL. SFC -
    UNL, 19 APR 19:55 2013 UNTIL PERM. CREATED: 19 APR 19:51
    2013

MYNN A0069/13 VOR Y RWY 09 FEEDER RTE FM MAJUR TO MUSSE NOT AVBL
    REMOVE PROCEDURE NOTE 'RADAR REQUIRED' FM APP CHART. SFC
    - UNL, 19 APR 19:55 2013 UNTIL PERM. CREATED: 19 APR 19:52
    2013

MYNN A0070/13 VOR Y RWY 32 FEEDER RTE FM PRUNE TO WELKS NOT AVBL
    REMOVE PROCEDURE NOTE 'RADAR REQUIRED' FM APP CHART. SFC
    - UNL, 19 APR 19:55 2013 UNTIL PERM. CREATED: 19 APR 19:54
    2013

MYNN A0206/14 SIX TEMPORARY CRANES WITH RED OBSTRUCTION LIGHTS
    ON TOP LOCATION N 25 04 14.65 W 077 23 53.63 CRANES 427FT
    AMSL 3.81 NM NE OF RWY 27 ILS RWY 14, RNAV (GNSS) RWY 09
    RNAV (GNSS) RWY 14 RNAV (GNSS) RWY 32 VOR Z RWY 09 VOR Y
    RWY 09 VOR Z RWY 14 VOR Y RWY 14 VOR Z RWY 32 VOR Y RWY 32
    SRE RWY 09 SRE RWY 14 SRE RWY 32 CIRCLING CAT C OCA 860 /
    OCH 844 VIS CAT C 4600. 30 DEC 17:00 2014 UNTIL 31 MAR 22:00
    2015. CREATED: 30 DEC 16:38 2014

MYNN B0005/15 CHECKLIST (B) SERIES YEAR=2014 0026 0028 0029 2015
    0004 LATEST PUBLICATIONS AIP AMDT 02/14 EFFECTIVE AUGUST
    21 2014 AIC 04/14. 02 MAR 16:30 2015 UNTIL 31 MAR 23:59 2015.
    CREATED: 02 MAR 14:53 2015

MYNN V0008/15 [DOD PROCEDURAL NOTAM] INSTRUMENT APPROACH PROCEDURE
    CHANGED CSA VOLUME 1 VOR Y RWY 14 AMDT 11. CHANGE CAT C CIRCLING
    MINIMA TO THE FOLLOWING: 860-4600M 844 (900-4600M). 06 JAN
    14:49 2015 UNTIL 31 MAR 22:00 2015. CREATED: 06 JAN 14:52
    2015

MYNN V0010/15 [DOD PROCEDURAL NOTAM] INSTRUMENT APPROACH PROCEDURE
    CHANGED CSA VOLUME 1 VOR Y RWY 32 AMDT 13. CHANGE CAT C CIRCLING
    MINIMA TO THE FOLLOWING: 860-4600M 844 (900-4600M). 06 JAN
    14:54 2015 UNTIL 31 MAR 22:00 2015. CREATED: 06 JAN 14:58
    2015

---------------------------------------------------------------------------